Time;durP1;ratioP1;P1;durP2;ratioP2;P2;SDS_P1;SDS_P2;PMS_P1;PMS_P2;Temp;Humidity;BMP_temperature;BMP_pressure;BME280_temperature;BME280_humidity;BME280_pressure;Samples;Min_cycle;Max_cycle;Signal;HPM_P1;HPM_P2
2022/06/18 00:01:41;;;;;;;;;;;20.00;69.40;;;19.34;64.53;96635.13;4162288;33;19903;-91
2022/06/18 00:04:12;;;;;;;;;;;20.00;69.40;;;19.32;64.12;96633.47;4162293;33;20126;-90
2022/06/18 00:06:46;;;;;;;;;;;20.00;69.30;;;19.31;64.57;96622.69;4185091;33;19910;-91
2022/06/18 00:09:15;;;;;;;;;;;20.00;69.30;;;19.33;64.33;96626.00;4161910;33;19908;-91
2022/06/18 00:14:31;;;;;;;;;;;20.00;69.40;;;19.31;64.57;96634.63;4185007;33;19952;-91
2022/06/18 00:17:00;;;;;;;;;;;20.00;69.30;;;19.31;64.27;96628.25;4185105;33;19903;-91
2022/06/18 00:19:28;;;;;;;;;;;20.00;69.30;;;19.29;64.31;96622.19;4184853;33;20138;-91
2022/06/18 00:21:57;;;;;;;;;;;20.00;69.40;;;19.31;64.31;96625.47;4208024;33;20287;-91
2022/06/18 00:24:26;;;;;;;;;;;20.00;69.30;;;19.30;64.15;96613.53;4161924;33;20439;-91
2022/06/18 00:26:56;;;;;;;;;;;20.00;69.30;;;19.29;64.23;96605.53;4161845;33;20167;-91
2022/06/18 00:29:25;;;;;;;;;;;19.90;69.30;;;19.29;64.21;96623.03;4184719;33;20150;-91
2022/06/18 00:31:53;;;;;;;;;;;20.00;69.30;;;19.29;64.31;96624.97;4184845;33;19926;-92
2022/06/18 00:34:22;;;;;;;;;;;19.90;69.20;;;19.29;64.46;96624.97;4184764;33;19955;-91
2022/06/18 00:36:51;;;;;;;;;;;20.00;69.30;;;19.28;64.24;96615.84;4184652;33;19903;-91
2022/06/18 00:39:21;;;;;;;;;;;19.90;69.20;;;19.28;64.02;96621.38;4162043;33;20173;-91
2022/06/18 00:41:51;;;;;;;;;;;19.90;69.20;;;19.27;64.23;96622.53;4161902;33;19903;-91
2022/06/18 00:44:30;;;;;;;;;;;20.00;69.20;;;19.26;64.15;96618.09;4161765;33;19903;-90
2022/06/18 00:47:10;;;;;;;;;;;19.90;69.20;;;19.26;64.08;96618.09;4184727;33;19902;-91
2022/06/18 00:49:44;;;;;;;;;;;19.90;69.10;;;19.28;64.36;96626.94;4161649;33;20225;-91
2022/06/18 00:52:17;;;;;;;;;;;20.00;69.20;;;19.27;64.36;96616.13;4161859;33;20031;-91
2022/06/18 00:54:50;;;;;;;;;;;19.90;69.20;;;19.26;64.33;96622.81;4161640;33;20405;-90
2022/06/18 00:57:28;;;;;;;;;;;19.90;69.10;;;19.27;63.99;96621.69;4184563;33;19989;-90
2022/06/18 01:00:08;;;;;;;;;;;20.00;69.10;;;19.27;64.19;96624.47;4161502;33;19998;-91
2022/06/18 01:02:39;;;;;;;;;;;19.90;69.10;;;19.25;64.20;96627.56;4161805;33;20158;-91
2022/06/18 01:05:21;;;;;;;;;;;19.90;69.10;;;19.25;64.07;96627.56;4184374;33;20136;-91
2022/06/18 01:07:53;;;;;;;;;;;19.90;69.10;;;19.24;64.37;96630.63;4161518;33;19903;-91
2022/06/18 01:10:30;;;;;;;;;;;19.90;69.10;;;19.24;64.13;96623.16;4161457;33;19974;-91
2022/06/18 01:12:59;;;;;;;;;;;19.90;69.10;;;19.24;64.11;96616.75;4184323;33;19903;-91
2022/06/18 01:15:30;;;;;;;;;;;19.90;69.10;;;19.22;63.98;96617.09;4161344;33;19908;-91
2022/06/18 01:17:59;;;;;;;;;;;19.90;69.00;;;19.24;63.91;96620.38;4184431;33;19987;-92
2022/06/18 01:20:28;;;;;;;;;;;19.90;69.00;;;19.24;64.09;96625.94;4161406;33;19980;-91
2022/06/18 01:23:04;;;;;;;;;;;19.90;69.10;;;19.23;64.17;96610.41;4184288;33;19963;-91
2022/06/18 01:25:34;;;;;;;;;;;19.90;69.00;;;19.21;64.17;96617.41;4184078;33;19903;-91
2022/06/18 01:28:03;;;;;;;;;;;19.90;69.00;;;19.22;64.13;96621.84;4161437;33;20214;-92
2022/06/18 01:30:38;;;;;;;;;;;19.90;69.10;;;19.20;64.02;96624.91;4184173;33;19978;-91
2022/06/18 01:33:10;;;;;;;;;;;19.90;69.10;;;19.21;63.94;96620.19;4161284;33;19902;-91
2022/06/18 01:35:44;;;;;;;;;;;19.90;69.10;;;19.20;64.05;96624.91;4184065;33;19903;-91
2022/06/18 01:38:25;;;;;;;;;;;19.90;68.90;;;19.20;64.16;96619.34;4161318;33;20011;-91
2022/06/18 01:40:57;;;;;;;;;;;19.90;68.90;;;19.19;63.82;96620.50;4184021;33;20340;-92
2022/06/18 01:43:26;;;;;;;;;;;19.90;68.90;;;19.16;63.83;96619.19;4161302;33;19903;-91
2022/06/18 01:45:59;;;;;;;;;;;19.90;69.10;;;19.16;64.05;96623.91;4161048;33;19903;-91
2022/06/18 01:48:34;;;;;;;;;;;19.90;69.00;;;19.18;63.78;96627.19;4184185;33;19910;-91
2022/06/18 01:51:09;;;;;;;;;;;19.80;68.90;;;19.18;63.59;96629.94;4161093;33;20138;-91
2022/06/18 01:53:46;;;;;;;;;;;19.80;68.80;;;19.17;63.74;96625.53;4160911;33;20000;-91
2022/06/18 01:56:19;;;;;;;;;;;19.80;68.90;;;19.17;64.03;96628.31;4160842;33;19903;-92
2022/06/18 01:58:51;;;;;;;;;;;19.80;68.80;;;19.15;63.81;96627.84;4160852;33;20053;-91
2022/06/18 02:01:43;;;;;;;;;;;19.80;68.80;;;19.15;63.97;96622.28;4207259;33;20139;-91
2022/06/18 02:04:12;;;;;;;;;;;19.80;68.80;;;19.14;64.30;96626.19;4160590;33;20214;-91
2022/06/18 02:06:41;;;;;;;;;;;19.80;68.80;;;19.14;63.88;96637.28;4160854;33;20147;-91
2022/06/18 02:09:14;;;;;;;;;;;19.80;68.80;;;19.12;64.06;96637.59;4160771;33;19925;-91
2022/06/18 02:11:44;;;;;;;;;;;19.80;68.80;;;19.11;64.06;96635.94;4160006;33;20229;-91
2022/06/18 02:14:14;;;;;;;;;;;19.80;68.80;;;19.14;63.96;96642.84;4183188;33;19903;-90
2022/06/18 02:16:45;;;;;;;;;;;19.80;68.80;;;19.13;63.62;96641.19;4183657;33;19903;-91
2022/06/18 02:19:16;;;;;;;;;;;19.80;68.70;;;19.12;63.79;96639.56;4160867;33;19903;-92
2022/06/18 02:21:50;;;;;;;;;;;19.80;68.70;;;19.12;63.80;96636.78;4160662;33;20483;-90
2022/06/18 02:24:19;;;;;;;;;;;19.80;68.60;;;19.11;63.73;96641.50;4160814;33;20053;-91
2022/06/18 02:26:49;;;;;;;;;;;19.80;68.70;;;19.09;63.80;96646.56;4183429;33;19907;-91
2022/06/18 02:29:20;;;;;;;;;;;19.80;68.70;;;19.11;63.72;96649.00;4183609;33;20009;-91
2022/06/18 02:31:49;;;;;;;;;;;19.80;68.70;;;19.11;63.66;96649.00;4183499;33;19902;-92
2022/06/18 02:34:20;;;;;;;;;;;19.80;68.70;;;19.11;64.03;96649.00;4160716;33;20156;-91
2022/06/18 02:36:49;;;;;;;;;;;19.80;68.70;;;19.07;63.70;96643.28;4160525;33;20133;-91
2022/06/18 02:39:26;;;;;;;;;;;19.80;68.60;;;19.07;63.73;96648.00;4206825;33;20080;-92
2022/06/18 02:42:01;;;;;;;;;;;19.80;68.60;;;19.10;64.01;96655.69;4160469;33;20374;-91
2022/06/18 02:44:30;;;;;;;;;;;19.80;68.70;;;19.09;64.13;96654.88;4183350;33;20135;-91
2022/06/18 02:47:01;;;;;;;;;;;19.80;68.70;;;19.10;63.75;96655.69;4160418;33;19903;-91
2022/06/18 02:49:30;;;;;;;;;;;19.70;68.70;;;19.09;63.69;96656.84;4160500;33;19902;-91
2022/06/18 02:51:58;;;;;;;;;;;19.70;68.70;;;19.09;63.66;96665.16;4183142;33;19903;-91
2022/06/18 02:54:27;;;;;;;;;;;19.80;68.70;;;19.09;63.87;96666.00;4160421;33;20199;-91
2022/06/18 02:56:57;;;;;;;;;;;19.80;68.70;;;19.08;63.76;96660.75;4160310;33;20162;-91
2022/06/18 02:59:26;;;;;;;;;;;19.70;68.70;;;19.08;63.73;96657.97;4160383;33;19910;-91
2022/06/18 03:01:55;;;;;;;;;;;19.70;68.70;;;19.08;63.72;96655.19;4183208;33;19980;-91
2022/06/18 03:04:25;;;;;;;;;;;19.80;68.70;;;19.06;63.63;96651.91;4160534;33;19999;-91
2022/06/18 03:06:56;;;;;;;;;;;19.70;68.70;;;19.08;63.88;96657.97;4160255;33;20392;-91
2022/06/18 03:09:28;;;;;;;;;;;19.70;68.70;;;19.07;64.02;96661.88;4160492;33;19909;-91
2022/06/18 03:12:06;;;;;;;;;;;19.80;68.80;;;19.07;63.90;96668.25;4161096;33;19903;-91
2022/06/18 03:14:37;;;;;;;;;;;19.70;68.80;;;19.07;63.77;96664.66;4162859;33;19903;-92
2022/06/18 03:17:07;;;;;;;;;;;19.70;68.80;;;19.07;64.00;96670.19;4162786;33;19982;-92
2022/06/18 03:19:40;;;;;;;;;;;19.70;68.80;;;19.05;63.87;96669.69;4162745;33;19914;-91
2022/06/18 03:22:13;;;;;;;;;;;19.70;68.80;;;19.05;63.77;96691.88;4185736;33;20202;-91
2022/06/18 03:24:42;;;;;;;;;;;19.70;68.80;;;19.05;63.93;96686.34;4162523;33;20035;-91
2022/06/18 03:27:13;;;;;;;;;;;19.70;68.80;;;19.06;63.91;96685.19;4162498;33;19902;-91
2022/06/18 03:29:46;;;;;;;;;;;19.70;68.80;;;19.05;63.81;96694.66;4162407;33;20110;-91
2022/06/18 03:48:50;;;;;;;;;;;19.70;68.90;;;19.04;64.00;96696.63;4251961;33;20105;-91
2022/06/18 03:51:22;;;;;;;;;;;19.70;69.00;;;19.05;64.08;96695.50;4275433;33;20128;-91
2022/06/18 03:53:51;;;;;;;;;;;19.70;68.90;;;19.03;63.78;96691.41;4251117;33;20083;-91
2022/06/18 03:56:22;;;;;;;;;;;19.70;69.80;;;19.05;63.76;96700.22;4251715;33;20216;-91
2022/06/18 03:58:51;;;;;;;;;;;19.70;69.00;;;19.04;63.89;96693.84;4251662;33;20109;-91
2022/06/18 04:01:22;;;;;;;;;;;19.70;69.00;;;19.06;63.89;96696.31;4251620;33;20307;-91
2022/06/18 04:03:52;;;;;;;;;;;19.70;69.00;;;19.03;64.10;96694.19;4274841;33;19902;-92
2022/06/18 04:06:42;;;;;;;;;;;19.70;69.00;;;19.04;63.84;96701.38;4274079;33;19902;-90
2022/06/18 04:14:11;;;;;;;;;;;19.70;68.90;;;19.05;63.65;96698.28;4276690;33;20347;-91
2022/06/18 04:16:58;;;;;;;;;;;19.80;68.80;;;19.04;63.90;96695.81;4250434;33;20020;-91
2022/06/18 04:19:34;;;;;;;;;;;19.70;69.00;;;19.03;63.89;96692.22;4251058;33;19984;-90
2022/06/18 04:22:04;;;;;;;;;;;19.70;68.90;;;19.05;63.81;96695.50;4251105;33;20303;-91
2022/06/18 04:24:59;;;;;;;;;;;19.70;68.90;;;19.05;63.59;96692.72;4273490;33;19902;-91
2022/06/18 04:27:28;;;;;;;;;;;19.80;68.80;;;19.08;63.68;96702.38;4251177;33;19902;-91
2022/06/18 04:29:57;;;;;;;;;;;19.70;68.80;;;19.07;63.75;96703.50;4274914;33;19901;-90
2022/06/18 04:32:38;;;;;;;;;;;19.80;68.80;;;19.10;63.70;96708.41;4251008;33;20161;-91
2022/06/18 04:35:10;;;;;;;;;;;19.70;68.70;;;19.09;63.57;96712.31;4251042;33;20216;-91
2022/06/18 04:37:46;;;;;;;;;;;19.80;68.70;;;19.09;63.65;96720.66;4251172;33;19902;-92
2022/06/18 04:40:51;;;;;;;;;;;19.70;68.70;;;19.09;63.82;96723.44;4246837;33;19901;-92
2022/06/18 04:43:24;;;;;;;;;;;19.80;68.70;;;19.08;63.61;96721.78;4250431;33;19980;-90
2022/06/18 04:45:56;;;;;;;;;;;19.70;68.70;;;19.07;63.88;96728.47;4241425;33;20334;-91
2022/06/18 04:48:27;;;;;;;;;;;19.70;68.90;;;19.09;63.85;96726.22;4241255;33;20003;-91
2022/06/18 04:50:58;;;;;;;;;;;19.80;68.90;;;19.06;63.69;96719.34;4241615;33;20002;-91
2022/06/18 04:53:27;;;;;;;;;;;19.80;68.80;;;19.09;63.67;96728.97;4241447;33;20120;-92
2022/06/18 04:56:04;;;;;;;;;;;19.80;68.90;;;19.08;63.84;96732.88;4241352;33;19902;-92
2022/06/18 04:58:35;;;;;;;;;;;19.80;69.00;;;19.09;63.87;96731.75;4241313;33;19979;-91
2022/06/18 05:01:04;;;;;;;;;;;19.70;69.00;;;19.09;63.95;96734.53;4241110;33;19909;-89
2022/06/18 05:03:43;;;;;;;;;;;19.80;68.90;;;19.07;63.83;96732.09;4265077;33;20157;-92
2022/06/18 05:06:29;;;;;;;;;;;19.80;69.00;;;19.10;64.09;96727.84;4241306;33;20416;-92
2022/06/18 05:09:06;;;;;;;;;;;19.80;69.00;;;19.10;63.90;96731.47;4241276;33;19902;-91
2022/06/18 05:12:01;;;;;;;;;;;19.80;68.90;;;19.11;64.03;96730.31;4260792;33;19902;-92
2022/06/18 05:14:57;;;;;;;;;;;19.80;68.90;;;19.13;63.95;96730.81;4263921;33;20217;-91
2022/06/18 05:17:48;;;;;;;;;;;19.80;68.80;;;19.14;63.83;96726.09;4241072;33;20001;-91
2022/06/18 05:20:20;;;;;;;;;;;19.80;68.70;;;19.15;63.53;96734.09;4240939;33;19937;-91
2022/06/18 05:22:54;;;;;;;;;;;19.80;68.50;;;19.17;63.15;96742.94;4265085;33;19902;-92
2022/06/18 05:25:23;;;;;;;;;;;19.80;68.50;;;19.16;63.45;96730.19;4240887;33;19938;-92
2022/06/18 05:28:47;;;;;;;;;;;19.80;68.70;;;19.20;64.15;96730.38;4241121;33;20072;-92
2022/06/18 05:31:16;;;;;;;;;;;19.80;69.00;;;19.22;64.00;96738.41;4241028;33;19902;-92
2022/06/18 05:34:00;;;;;;;;;;;19.90;69.10;;;19.26;63.94;96733.84;4264553;33;20350;-92
2022/06/18 05:36:49;;;;;;;;;;;19.90;69.20;;;19.30;64.24;96738.47;4245837;33;19978;-92
2022/06/18 05:39:22;;;;;;;;;;;20.00;69.20;;;19.35;63.82;96743.09;4240887;33;20431;-93
2022/06/18 05:41:51;;;;;;;;;;;20.00;69.10;;;19.37;63.98;96742.75;4241030;33;20391;-91
2022/06/18 05:44:19;;;;;;;;;;;20.10;69.10;;;19.41;63.91;96738.22;4240913;33;20012;-92
2022/06/18 05:46:48;;;;;;;;;;;20.10;69.00;;;19.44;64.06;96746.75;4240917;33;19968;-92
2022/06/18 05:49:17;;;;;;;;;;;20.10;69.10;;;19.48;64.05;96741.38;4240563;33;19902;-91
2022/06/18 05:51:46;;;;;;;;;;;20.10;68.90;;;19.50;63.57;96750.22;4264556;33;19901;-91
2022/06/18 05:54:25;;;;;;;;;;;;;;;;;;;;;
2022/06/18 05:58:11;;;;;;;;;;;20.20;68.80;;;19.58;63.74;96752.22;4151734;34;19904;-90
2022/06/18 06:01:42;;;;;;;;;;;20.30;68.70;;;19.62;63.86;96753.25;4124192;34;20235;-90
2022/06/18 06:04:51;;;;;;;;;;;20.30;68.60;;;19.66;63.60;96747.06;4101792;34;20054;-91
2022/06/18 06:12:28;;;;;;;;;;;20.40;68.30;;;19.73;63.86;96753.81;4123723;34;19900;-90
2022/06/18 06:15:00;;;;;;;;;;;20.40;68.10;;;19.76;63.05;96753.16;4100911;34;20150;-88
2022/06/18 06:17:29;;;;;;;;;;;20.50;68.00;;;19.80;63.28;96758.94;4194747;33;19902;-88
2022/06/18 06:20:01;;;;;;;;;;;20.50;68.00;;;19.81;63.25;96755.00;4187249;33;20192;-88
2022/06/18 06:23:16;;;;;;;;;;;20.50;68.10;;;19.82;63.00;96762.19;4210028;33;20086;-88
2022/06/18 06:30:13;;;;;;;;;;;20.50;68.20;;;19.78;63.27;96750.09;4238322;33;20063;-87
2022/06/18 06:32:42;;;;;;;;;;;20.50;68.40;;;19.77;63.86;96748.44;4221852;33;20142;-88
2022/06/18 06:35:33;;;;;;;;;;;20.50;68.50;;;19.74;63.56;96751.84;4238545;33;19974;-88
2022/06/18 06:38:02;;;;;;;;;;;20.50;68.30;;;19.73;63.51;96752.97;4262874;33;19902;-88
2022/06/18 06:40:31;;;;;;;;;;;20.40;68.40;;;19.72;63.83;96751.34;4262705;33;20003;-89
2022/06/18 06:43:00;;;;;;;;;;;20.40;68.60;;;19.71;63.79;96744.97;4262313;33;19902;-88
2022/06/18 06:45:32;;;;;;;;;;;20.40;68.60;;;19.72;64.11;96756.91;4238552;33;19909;-88
2022/06/18 06:48:00;;;;;;;;;;;20.40;68.70;;;19.73;63.62;96756.59;4263543;33;19941;-88
2022/06/18 06:50:30;;;;;;;;;;;20.40;68.60;;;19.74;63.81;96751.84;4238646;33;19909;-88
2022/06/18 06:52:59;;;;;;;;;;;20.40;68.60;;;19.75;63.60;96756.28;4238577;33;19901;-88
2022/06/18 06:58:17;;;;;;;;;;;20.40;68.60;;;19.79;63.61;96757.28;4238497;33;19902;-87
2022/06/18 07:00:49;;;;;;;;;;;20.50;68.60;;;19.82;63.75;96762.19;4262291;33;20259;-88
2022/06/18 07:03:21;;;;;;;;;;;20.50;68.50;;;19.81;63.32;96755.00;4263205;33;19913;-88
2022/06/18 07:05:50;;;;;;;;;;;20.50;68.40;;;19.82;63.65;96761.38;4238456;33;19908;-87
2022/06/18 07:08:18;;;;;;;;;;;20.50;68.50;;;19.81;63.67;96766.13;4238226;33;19902;-88
2022/06/18 07:10:49;;;;;;;;;;;20.50;68.60;;;19.80;63.63;96758.94;4238406;33;19941;-89
2022/06/18 07:13:18;;;;;;;;;;;20.40;68.40;;;19.80;63.41;96756.16;4263064;33;19905;-89
2022/06/18 07:15:48;;;;;;;;;;;20.50;68.60;;;19.79;63.50;96757.28;4238187;33;20012;-89
2022/06/18 07:18:19;;;;;;;;;;;20.50;68.70;;;19.77;64.06;96759.56;4262111;33;20142;-89
2022/06/18 07:20:48;;;;;;;;;;;20.50;68.60;;;19.79;63.56;96757.28;4238317;33;19909;-88
2022/06/18 07:23:17;;;;;;;;;;;20.50;68.60;;;19.78;63.87;96761.19;4238130;33;19902;-89
2022/06/18 07:25:46;;;;;;;;;;;20.50;68.70;;;19.77;63.69;96754.00;4238140;33;20117;-87
2022/06/18 07:28:14;;;;;;;;;;;20.50;68.80;;;19.74;63.84;96749.06;4238304;33;19902;-87
2022/06/18 07:30:46;;;;;;;;;;;20.40;68.70;;;19.73;63.94;96753.81;4238235;33;19902;-86
2022/06/18 07:33:21;;;;;;;;;;;20.40;68.70;;;19.73;64.12;96747.44;4261974;33;20018;-87
2022/06/18 07:35:50;;;;;;;;;;;20.40;68.80;;;19.71;64.07;96750.53;4261878;33;19909;-86
2022/06/18 07:38:18;;;;;;;;;;;20.40;68.90;;;19.72;63.67;96743.00;4261728;33;19902;-86
2022/06/18 07:40:50;;;;;;;;;;;20.40;68.80;;;19.78;63.67;96747.31;4262138;33;20162;-88
2022/06/18 07:43:21;;;;;;;;;;;20.50;68.80;;;19.83;63.48;96746.34;4238007;33;20234;-88
2022/06/18 07:45:50;;;;;;;;;;;20.50;69.40;;;19.87;63.43;96762.09;4238192;33;19909;-88
2022/06/18 07:48:20;;;;;;;;;;;20.50;68.40;;;19.92;63.49;96761.13;4238236;33;19921;-88
2022/06/18 07:50:49;;;;;;;;;;;20.50;68.30;;;19.96;63.36;96758.53;4238144;33;20123;-88
2022/06/18 07:53:19;;;;;;;;;;;20.60;68.30;;;19.99;62.92;96760.69;4238110;33;20034;-87
2022/06/18 07:55:47;;;;;;;;;;;20.60;68.10;;;20.02;63.10;96754.50;4238243;33;20206;-88
2022/06/18 07:58:16;;;;;;;;;;;20.70;68.10;;;20.05;62.80;96759.44;4261756;33;20123;-87
2022/06/18 08:00:45;;;;;;;;;;;20.70;68.00;;;20.07;63.05;96763.53;4238357;33;19925;-88
2022/06/18 08:03:15;;;;;;;;;;;20.70;68.00;;;20.10;62.89;96766.81;4238076;33;20102;-88
2022/06/18 08:05:45;;;;;;;;;;;20.80;67.80;;;20.13;62.76;96760.63;4238489;33;20142;-88
2022/06/18 08:08:14;;;;;;;;;;;20.80;67.80;;;20.14;62.73;96763.06;4238694;33;20128;-89
2022/06/18 08:10:44;;;;;;;;;;;20.80;67.70;;;20.14;62.84;96757.50;4262123;33;19923;-88
2022/06/18 08:13:13;;;;;;;;;;;20.80;67.60;;;20.16;62.88;96766.34;4237965;33;19909;-88
2022/06/18 08:15:41;;;;;;;;;;;20.80;67.60;;;20.18;62.59;96763.25;4238257;33;19908;-89
2022/06/18 08:18:10;;;;;;;;;;;20.80;67.50;;;20.15;62.77;96764.72;4238312;33;19901;-88
2022/06/18 08:20:39;;;;;;;;;;;20.80;67.50;;;20.09;62.88;96760.41;4264294;33;19908;-89
2022/06/18 08:23:09;;;;;;;;;;;20.80;67.50;;;20.06;63.20;96766.63;4264388;33;19909;-89
2022/06/18 08:25:38;;;;;;;;;;;20.80;67.70;;;20.01;63.39;96764.78;4288546;33;19909;-88
2022/06/18 08:28:08;;;;;;;;;;;20.70;67.90;;;19.98;63.06;96767.38;4240574;33;20156;-88
2022/06/18 08:30:37;;;;;;;;;;;20.70;68.10;;;19.95;63.43;96770.78;4240754;33;20252;-89
2022/06/18 08:33:05;;;;;;;;;;;20.70;68.30;;;19.92;63.64;96767.53;4240291;33;20137;-88
2022/06/18 08:35:36;;;;;;;;;;;20.60;68.30;;;19.88;63.41;96765.72;4264299;33;19968;-89
2022/06/18 08:38:06;;;;;;;;;;;20.60;68.40;;;19.85;63.57;96761.56;4264444;33;19908;-89
2022/06/18 08:40:56;;;;;;;;;;;20.60;68.60;;;19.84;63.90;96765.47;4240526;33;20198;-89
2022/06/18 08:43:40;;;;;;;;;;;20.50;68.70;;;19.81;63.87;96766.13;4264197;33;19942;-88
2022/06/18 08:46:13;;;;;;;;;;;20.50;68.80;;;19.82;63.84;96764.97;4264391;33;19902;-89
2022/06/18 08:49:15;;;;;;;;;;;20.50;68.80;;;19.83;63.75;96763.03;4264324;33;20093;-89
2022/06/18 08:51:57;;;;;;;;;;;20.50;68.80;;;19.83;63.89;96766.59;4264099;33;19902;-88
2022/06/18 08:54:39;;;;;;;;;;;20.50;68.80;;;19.85;63.70;96769.91;4240321;33;19902;-89
2022/06/18 08:57:14;;;;;;;;;;;20.50;68.80;;;19.84;63.65;96768.25;4240320;33;19905;-90
2022/06/18 08:59:52;;;;;;;;;;;20.50;68.80;;;19.84;63.83;96776.59;4263958;33;20029;-88
2022/06/18 09:02:26;;;;;;;;;;;20.50;68.80;;;19.85;64.00;96772.66;4211671;33;20037;-88
2022/06/18 09:05:05;;;;;;;;;;;20.50;68.80;;;19.86;63.96;96768.78;4236200;33;19902;-89
2022/06/18 09:08:07;;;;;;;;;;;20.50;68.70;;;19.89;63.96;96761.75;4211842;33;20214;-88
2022/06/18 09:10:51;;;;;;;;;;;20.60;68.70;;;19.91;63.97;96763.13;4229912;33;20004;-88
2022/06/18 09:13:24;;;;;;;;;;;20.60;68.80;;;19.92;63.73;96758.34;4234724;33;19903;-88
2022/06/18 09:15:56;;;;;;;;;;;20.60;68.80;;;19.92;64.00;96761.97;4235003;33;20365;-88
2022/06/18 09:18:27;;;;;;;;;;;20.60;68.60;;;19.91;63.90;96760.34;4235034;33;20121;-89
2022/06/18 09:20:57;;;;;;;;;;;20.60;68.60;;;19.90;63.77;96763.41;4245030;33;20167;-88
2022/06/18 09:23:28;;;;;;;;;;;20.60;68.60;;;19.89;63.65;96767.31;4239088;33;20140;-88
2022/06/18 09:25:58;;;;;;;;;;;20.60;68.60;;;19.87;63.84;96770.44;4287526;33;20180;-88
2022/06/18 09:28:31;;;;;;;;;;;20.60;68.70;;;19.87;63.73;96764.06;4263037;33;20212;-88
2022/06/18 09:31:06;;;;;;;;;;;20.50;68.70;;;19.86;63.77;96765.16;4239450;33;20355;-88
2022/06/18 09:33:38;;;;;;;;;;;20.50;68.80;;;19.84;63.93;96756.34;4262722;33;19925;-87
2022/06/18 09:36:12;;;;;;;;;;;20.50;68.70;;;19.86;63.83;96763.22;4263109;33;20073;-86
2022/06/18 09:38:42;;;;;;;;;;;20.50;68.70;;;19.86;63.80;96756.84;4262939;33;20026;-88
2022/06/18 09:41:17;;;;;;;;;;;20.50;68.70;;;19.87;63.67;96756.53;4287050;33;19924;-87
2022/06/18 09:43:53;;;;;;;;;;;20.60;68.60;;;19.87;63.95;96752.97;4238458;33;20232;-87
2022/06/18 09:46:24;;;;;;;;;;;20.50;68.60;;;19.88;63.85;96749.03;4262981;33;20124;-88
2022/06/18 09:48:53;;;;;;;;;;;20.60;68.60;;;19.86;63.78;96752.13;4244101;28;20075;-84
2022/06/18 09:51:40;;;;;;;;;;;20.60;68.60;;;19.85;63.97;96758.78;4224165;33;19902;-84
2022/06/18 09:54:10;;;;;;;;;;;20.50;68.60;;;19.82;63.73;96758.59;4270084;33;20119;-84
2022/06/18 09:56:41;;;;;;;;;;;20.50;68.60;;;19.82;63.94;96750.25;4262930;33;19902;-84
2022/06/18 09:59:15;;;;;;;;;;;20.50;68.70;;;19.81;63.81;96748.63;4239234;33;20057;-84
2022/06/18 10:01:47;;;;;;;;;;;20.50;68.80;;;19.82;63.78;96744.72;4239081;33;19994;-84
2022/06/18 10:07:13;;;;;;;;;;;20.50;68.80;;;19.81;63.96;96749.47;4190010;33;19902;-86
2022/06/18 10:09:44;;;;;;;;;;;20.50;68.80;;;19.81;63.79;96745.84;4239404;33;19901;-84
2022/06/18 10:12:19;;;;;;;;;;;20.50;68.70;;;19.81;63.69;96743.91;4239118;33;19902;-85
2022/06/18 10:14:52;;;;;;;;;;;20.50;68.70;;;19.80;63.62;96745.03;4238339;33;20128;-84
2022/06/18 10:17:37;;;;;;;;;;;20.50;68.80;;;19.81;63.95;96743.91;4238257;33;19901;-85
2022/06/18 10:20:09;;;;;;;;;;;20.50;68.70;;;19.82;63.48;96739.97;4262859;33;20066;-84
2022/06/18 10:22:43;;;;;;;;;;;20.50;68.50;;;19.82;64.00;96737.19;4239192;33;19902;-84
2022/06/18 10:25:25;;;;;;;;;;;20.50;68.70;;;19.82;63.68;96736.38;4262261;33;20092;-84
2022/06/18 10:27:58;;;;;;;;;;;20.50;68.60;;;19.82;63.92;96744.72;4238762;33;19913;-84
2022/06/18 10:30:35;;;;;;;;;;;20.50;68.60;;;19.83;63.33;96740.78;4262793;33;19902;-87
2022/06/18 10:33:08;;;;;;;;;;;20.50;68.30;;;19.83;63.38;96738.00;4233806;33;19925;-84
2022/06/18 10:35:51;;;;;;;;;;;20.50;68.30;;;19.81;63.35;96729.19;4210898;33;19935;-84
2022/06/18 10:38:39;;;;;;;;;;;20.50;68.30;;;19.82;63.35;96736.38;4233888;33;19939;-86
2022/06/18 10:41:11;;;;;;;;;;;20.50;68.20;;;19.82;63.16;96736.38;4231472;33;19911;-85
2022/06/18 10:44:02;;;;;;;;;;;20.50;68.20;;;19.82;63.49;96728.03;4237728;33;19925;-85
2022/06/18 10:46:32;;;;;;;;;;;20.50;68.10;;;19.81;63.37;96726.41;4238967;33;20463;-85
2022/06/18 10:49:03;;;;;;;;;;;20.50;68.30;;;19.82;63.64;96722.47;4210041;33;19902;-83
2022/06/18 10:51:41;;;;;;;;;;;20.50;68.20;;;19.82;63.33;96723.28;4210304;33;20018;-83
2022/06/18 10:54:10;;;;;;;;;;;20.50;68.20;;;19.81;63.66;96726.41;4210010;33;20145;-83
2022/06/18 10:56:51;;;;;;;;;;;20.50;68.20;;;19.81;63.38;96730.00;4233797;33;19902;-83
2022/06/18 10:59:30;;;;;;;;;;;20.50;68.10;;;19.81;63.70;96727.22;4233758;33;20236;-83
2022/06/18 11:02:14;;;;;;;;;;;20.50;68.30;;;19.81;63.70;96718.91;4233807;33;19911;-83
2022/06/18 11:04:43;;;;;;;;;;;20.50;68.30;;;19.80;63.42;96725.59;4209742;33;20234;-83
2022/06/18 11:07:12;;;;;;;;;;;20.50;68.20;;;19.78;63.58;96722.31;4210434;33;20430;-83
2022/06/18 11:09:58;;;;;;;;;;;20.50;68.30;;;19.78;63.51;96723.09;4210212;33;19917;-84
2022/06/18 11:12:31;;;;;;;;;;;20.50;68.30;;;19.77;63.28;96727.03;4210247;33;19994;-84
2022/06/18 11:15:00;;;;;;;;;;;20.40;68.10;;;19.78;63.48;96727.88;4209748;33;19909;-84
2022/06/18 11:17:36;;;;;;;;;;;20.50;68.10;;;19.79;63.05;96723.94;4216012;33;20316;-85
2022/06/18 11:20:18;;;;;;;;;;;20.50;68.10;;;19.78;63.44;96722.31;4238953;33;19902;-85
2022/06/18 11:22:52;;;;;;;;;;;20.50;68.20;;;19.78;63.57;96716.75;4238262;33;19916;-84
2022/06/18 11:25:29;;;;;;;;;;;20.50;68.10;;;19.79;63.61;96723.94;4237789;33;19902;-83
2022/06/18 11:27:59;;;;;;;;;;;20.50;68.20;;;19.78;63.35;96722.31;4238234;33;19985;-83
2022/06/18 11:30:32;;;;;;;;;;;20.50;68.20;;;19.77;63.49;96721.47;4238503;33;19988;-84
2022/06/18 11:33:02;;;;;;;;;;;20.50;68.30;;;19.77;63.58;96721.47;4238260;33;19901;-84
2022/06/18 11:35:33;;;;;;;;;;;20.50;68.30;;;19.77;63.53;96715.91;4238323;33;20024;-84
2022/06/18 11:38:04;;;;;;;;;;;20.50;68.30;;;19.75;63.63;96718.19;4238113;33;20252;-84
2022/06/18 11:40:33;;;;;;;;;;;20.50;68.30;;;19.76;63.33;96725.38;4238227;33;20094;-84
2022/06/18 11:43:06;;;;;;;;;;;20.50;68.20;;;19.77;63.23;96723.44;4261968;33;20096;-85
2022/06/18 11:45:44;;;;;;;;;;;20.50;68.20;;;19.77;63.29;96709.56;4238448;33;20136;-84
2022/06/18 11:48:23;;;;;;;;;;;20.50;68.60;;;19.77;63.41;96715.09;4262019;33;20115;-84
2022/06/18 11:50:56;;;;;;;;;;;20.50;68.30;;;19.78;63.54;96711.19;4238279;33;19972;-84
2022/06/18 11:53:29;;;;;;;;;;;20.50;68.10;;;19.79;63.22;96715.63;4238115;33;20005;-84
2022/06/18 11:55:58;;;;;;;;;;;20.50;68.20;;;19.79;63.28;96701.72;4240632;33;20317;-84
2022/06/18 11:58:33;;;;;;;;;;;20.50;68.00;;;19.80;63.29;96713.63;4241225;33;19997;-84
2022/06/18 12:01:06;;;;;;;;;;;20.50;68.00;;;19.79;63.25;96701.72;4240570;33;20157;-85
2022/06/18 12:03:38;;;;;;;;;;;20.50;68.80;;;19.79;63.37;96698.94;4240405;33;20102;-84
2022/06/18 12:06:12;;;;;;;;;;;20.50;68.00;;;19.81;63.18;96709.72;4264357;33;20101;-83
2022/06/18 12:08:41;;;;;;;;;;;20.50;68.00;;;19.80;62.94;96699.75;4240683;33;20115;-83
2022/06/18 12:11:29;;;;;;;;;;;20.50;67.90;;;19.80;63.34;96692.25;4240799;33;20479;-83
2022/06/18 12:14:04;;;;;;;;;;;20.50;67.90;;;19.80;63.19;96697.81;4264006;33;19909;-85
2022/06/18 12:16:38;;;;;;;;;;;20.50;68.00;;;19.82;63.43;96701.06;4264502;33;20116;-85
2022/06/18 12:19:12;;;;;;;;;;;20.50;67.80;;;19.82;63.42;96692.72;4240366;33;20133;-84
2022/06/18 12:21:44;;;;;;;;;;;20.50;68.00;;;19.83;63.19;96679.66;4264433;33;20045;-84
2022/06/18 12:24:20;;;;;;;;;;;20.50;67.80;;;19.83;63.29;96691.59;4264082;33;19902;-84
2022/06/18 12:26:54;;;;;;;;;;;20.50;67.80;;;19.83;62.98;96683.25;4240506;33;20255;-85
2022/06/18 12:29:57;;;;;;;;;;;20.50;67.80;;;19.83;63.33;96683.25;4265266;33;20223;-85
2022/06/18 12:32:34;;;;;;;;;;;20.50;67.80;;;19.84;63.05;96681.31;4235905;33;19901;-84